Time;durP1;ratioP1;P1;durP2;ratioP2;P2;SDS_P1;SDS_P2;PMS_P1;PMS_P2;Temp;Humidity;BMP_temperature;BMP_pressure;BME280_temperature;BME280_humidity;BME280_pressure;Samples;Min_cycle;Max_cycle;Signal;HPM_P1;HPM_P2
2021/12/06 00:02:27;;;;;;;76.88;29.33;;;9.60;99.90;;;;;;5268390;28;20029;-73
2021/12/06 00:04:58;;;;;;;73.97;29.77;;;9.90;99.90;;;;;;5268720;28;20082;-74
2021/12/06 00:07:29;;;;;;;81.30;30.75;;;9.60;99.90;;;;;;5268527;28;20020;-74
2021/12/06 00:10:00;;;;;;;76.72;30.08;;;9.50;99.90;;;;;;5268471;28;20032;-73
2021/12/06 00:12:31;;;;;;;85.55;31.55;;;9.60;99.90;;;;;;5269138;28;20034;-74
2021/12/06 00:15:04;;;;;;;83.20;31.08;;;9.60;99.90;;;;;;5272289;28;20095;-74
2021/12/06 00:17:34;;;;;;;78.75;31.15;;;9.70;99.90;;;;;;5272427;28;20359;-74
2021/12/06 00:20:07;;;;;;;80.82;31.92;;;9.80;99.90;;;;;;5272131;28;20028;-73
2021/12/06 00:22:39;;;;;;;71.03;30.15;;;9.60;99.90;;;;;;5272122;28;20040;-73
2021/12/06 00:25:10;;;;;;;81.57;29.73;;;9.40;99.90;;;;;;5272167;28;20028;-74
2021/12/06 00:27:41;;;;;;;84.50;28.88;;;9.40;99.90;;;;;;5271991;28;20028;-73
2021/12/06 00:30:15;;;;;;;86.95;31.10;;;9.40;99.90;;;;;;5253539;28;20028;-73
2021/12/06 00:32:47;;;;;;;90.65;32.92;;;9.30;99.90;;;;;;5272083;28;20475;-74
2021/12/06 00:35:21;;;;;;;89.90;30.58;;;9.10;99.90;;;;;;5272101;28;20363;-73
2021/12/06 00:37:56;;;;;;;81.45;30.70;;;9.50;99.90;;;;;;5271844;28;20028;-73
2021/12/06 00:40:38;;;;;;;83.82;30.13;;;9.40;99.90;;;;;;5271821;28;20028;-73
2021/12/06 00:43:09;;;;;;;79.80;29.42;;;9.10;99.90;;;;;;5271903;28;20414;-73
2021/12/06 00:45:40;;;;;;;81.97;30.60;;;9.20;99.90;;;;;;5271886;28;20040;-73
2021/12/06 00:48:11;;;;;;;83.80;31.40;;;9.00;99.90;;;;;;5271749;28;20024;-73
2021/12/06 00:50:44;;;;;;;86.90;34.20;;;9.20;99.90;;;;;;5271556;28;20059;-73
2021/12/06 00:53:15;;;;;;;82.90;31.63;;;10.00;99.90;;;;;;5271490;28;20510;-74
2021/12/06 00:55:46;;;;;;;75.20;27.63;;;9.30;99.90;;;;;;5271492;28;20032;-73
2021/12/06 00:58:16;;;;;;;89.32;29.85;;;9.00;99.90;;;;;;5271407;28;20024;-73
2021/12/06 01:00:51;;;;;;;80.90;30.67;;;9.10;99.90;;;;;;5271377;28;20463;-73
2021/12/06 01:03:27;;;;;;;88.75;32.40;;;9.20;99.90;;;;;;5271076;28;20109;-73
2021/12/06 01:05:58;;;;;;;104.55;31.23;;;9.10;99.90;;;;;;5271384;28;20099;-73
2021/12/06 01:08:29;;;;;;;87.65;30.70;;;9.00;99.90;;;;;;5271191;28;20401;-74
2021/12/06 01:11:00;;;;;;;98.47;33.88;;;9.10;99.90;;;;;;5271059;28;20077;-73
2021/12/06 01:13:31;;;;;;;101.63;34.45;;;8.80;99.90;;;;;;5271106;28;20376;-73
2021/12/06 01:16:03;;;;;;;98.30;33.47;;;8.90;99.90;;;;;;5270973;28;20472;-73
2021/12/06 01:18:34;;;;;;;98.03;31.80;;;8.80;99.90;;;;;;5270983;28;20019;-73
2021/12/06 01:21:18;;;;;;;97.78;33.10;;;8.80;99.90;;;;;;5270585;28;20059;-73
2021/12/06 01:39:55;;;;;;;72.70;27.80;;;8.50;99.90;;;;;;5270993;28;20027;-73
2021/12/06 01:42:26;;;;;;;63.75;25.95;;;8.50;99.90;;;;;;5270520;28;20016;-74
2021/12/06 01:44:58;;;;;;;53.35;22.45;;;8.20;99.90;;;;;;5270555;28;20031;-73
2021/12/06 01:47:35;;;;;;;49.60;22.00;;;7.90;99.90;;;;;;5270498;28;20081;-74
2021/12/06 01:50:06;;;;;;;63.88;26.00;;;7.80;99.90;;;;;;5270268;28;20038;-73
2021/12/06 01:52:42;;;;;;;64.95;26.65;;;8.00;99.90;;;;;;5270384;28;20032;-73
2021/12/06 01:55:16;;;;;;;59.72;24.58;;;8.20;99.90;;;;;;5270221;28;20036;-73
2021/12/06 01:57:48;;;;;;;54.95;25.00;;;7.90;99.90;;;;;;5270319;28;20051;-74
2021/12/06 02:00:27;;;;;;;59.13;24.00;;;7.60;99.90;;;;;;5270219;28;20089;-73
2021/12/06 02:02:59;;;;;;;77.80;28.00;;;7.80;99.90;;;;;;5269968;28;20047;-73
2021/12/06 02:05:31;;;;;;;75.65;27.45;;;8.20;99.90;;;;;;5270224;28;20270;-74
2021/12/06 02:08:03;;;;;;;77.88;28.95;;;8.30;99.90;;;;;;5270151;28;20055;-73
2021/12/06 02:10:35;;;;;;;73.45;29.75;;;8.40;99.90;;;;;;5270123;28;20016;-73
2021/12/06 02:13:08;;;;;;;76.15;29.92;;;8.70;99.90;;;;;;5269857;28;20028;-73
2021/12/06 02:15:47;;;;;;;73.47;29.23;;;8.60;99.90;;;;;;5269861;28;20073;-74
2021/12/06 02:18:41;;;;;;;67.65;28.70;;;8.80;99.90;;;;;;5269715;28;20118;-73
2021/12/06 02:21:23;;;;;;;60.85;25.92;;;8.70;99.90;;;;;;5269833;28;20040;-73
2021/12/06 02:23:55;;;;;;;52.25;23.60;;;8.00;99.90;;;;;;5269794;28;20036;-73
2021/12/06 02:26:26;;;;;;;69.25;27.50;;;8.10;99.90;;;;;;5269612;28;20103;-73
2021/12/06 02:28:57;;;;;;;76.35;27.88;;;8.40;99.90;;;;;;5269724;28;20472;-73
2021/12/06 02:31:29;;;;;;;65.57;27.60;;;8.30;99.90;;;;;;5269612;28;20103;-73
2021/12/06 02:33:59;;;;;;;73.65;29.98;;;9.10;99.90;;;;;;5269493;28;20475;-73
2021/12/06 02:36:31;;;;;;;72.82;29.70;;;9.10;99.90;;;;;;5268433;28;20028;-73
2021/12/06 02:39:08;;;;;;;68.15;28.02;;;9.20;99.90;;;;;;5268796;28;20020;-74
2021/12/06 02:41:39;;;;;;;65.25;26.60;;;8.90;99.90;;;;;;5268924;28;20047;-73
2021/12/06 02:44:10;;;;;;;53.50;25.73;;;8.80;99.90;;;;;;5268850;28;20023;-73
2021/12/06 02:46:41;;;;;;;56.13;24.85;;;9.30;99.90;;;;;;5269382;28;20364;-73
2021/12/06 02:49:12;;;;;;;49.20;22.38;;;8.70;99.90;;;;;;5269320;28;20488;-74
2021/12/06 02:51:43;;;;;;;51.80;22.65;;;8.30;99.90;;;;;;5269145;28;20021;-73
2021/12/06 02:54:14;;;;;;;57.20;24.90;;;8.60;99.90;;;;;;5269659;28;20182;-74
2021/12/06 02:59:35;;;;;;;54.95;26.40;;;9.30;99.90;;;;;;5269525;28;20372;-73
2021/12/06 03:02:12;;;;;;;58.47;27.98;;;9.90;99.90;;;;;;5269155;28;20031;-74
2021/12/06 03:04:43;;;;;;;51.63;27.02;;;10.20;99.90;;;;;;5269408;28;20544;-74
2021/12/06 03:07:20;;;;;;;55.97;25.30;;;10.10;99.90;;;;;;5268851;28;20048;-73
2021/12/06 03:09:54;;;;;;;48.20;24.50;;;9.60;99.90;;;;;;5262272;28;20039;-71
2021/12/06 03:12:27;;;;;;;52.47;24.65;;;10.20;99.90;;;;;;5256270;28;20016;-74
2021/12/06 03:15:00;;;;;;;41.65;23.08;;;10.60;99.90;;;;;;5257170;28;20040;-72
2021/12/06 03:17:32;;;;;;;40.33;21.33;;;10.30;99.90;;;;;;5257170;28;20024;-74
2021/12/06 03:20:09;;;;;;;37.30;20.48;;;10.50;99.90;;;;;;5256861;28;20100;-73
2021/12/06 03:22:42;;;;;;;40.47;19.55;;;10.50;99.90;;;;;;5256030;28;20028;-74
2021/12/06 03:25:15;;;;;;;37.85;20.00;;;10.50;99.90;;;;;;5255843;28;20421;-73
2021/12/06 03:27:47;;;;;;;40.47;20.00;;;10.30;99.90;;;;;;5238006;28;20550;-74
2021/12/06 03:30:18;;;;;;;39.22;19.63;;;10.30;99.90;;;;;;5257057;28;20043;-72
2021/12/06 03:32:48;;;;;;;38.58;20.05;;;10.50;99.90;;;;;;5257024;28;20077;-73
2021/12/06 03:35:19;;;;;;;54.47;29.10;;;10.00;99.90;;;;;;5255870;28;20430;-72
2021/12/06 03:37:50;;;;;;;60.45;30.92;;;8.40;99.90;;;;;;5255667;28;20093;-73
2021/12/06 03:40:21;;;;;;;54.95;28.92;;;8.20;99.90;;;;;;5256593;28;20451;-74
2021/12/06 03:42:53;;;;;;;62.83;31.15;;;8.00;99.90;;;;;;5256951;28;20457;-74
2021/12/06 03:45:23;;;;;;;56.15;28.63;;;7.80;99.90;;;;;;5256361;28;20036;-73
2021/12/06 03:47:54;;;;;;;58.33;29.75;;;7.70;99.90;;;;;;5258272;28;20029;-73
2021/12/06 03:50:25;;;;;;;56.15;28.80;;;7.40;99.90;;;;;;5259990;28;20103;-74
2021/12/06 03:52:56;;;;;;;104.10;50.22;;;7.30;99.90;;;;;;5260834;28;20020;-73
2021/12/06 03:55:27;;;;;;;109.57;53.83;;;7.00;99.90;;;;;;5260570;28;20040;-72
2021/12/06 03:57:58;;;;;;;123.70;59.28;;;6.90;99.90;;;;;;5258033;28;20360;-74
2021/12/06 04:00:29;;;;;;;116.63;55.92;;;6.70;99.90;;;;;;5260781;28;20421;-73
2021/12/06 04:03:00;;;;;;;129.25;61.63;;;6.70;99.90;;;;;;5259493;28;20037;-74
2021/12/06 04:05:31;;;;;;;106.82;52.35;;;6.50;99.90;;;;;;5259266;28;20365;-73
2021/12/06 04:08:02;;;;;;;106.43;54.80;;;6.80;99.90;;;;;;5260204;28;20024;-73
2021/12/06 04:10:33;;;;;;;105.28;50.92;;;6.60;99.90;;;;;;5233406;28;20387;-74
2021/12/06 04:13:04;;;;;;;87.20;47.53;;;6.70;99.90;;;;;;5259872;28;20012;-74
2021/12/06 04:15:36;;;;;;;94.20;49.25;;;6.60;99.90;;;;;;5260420;28;20387;-72
2021/12/06 04:18:07;;;;;;;89.60;46.65;;;6.50;99.90;;;;;;5266915;28;20047;-74
2021/12/06 04:20:38;;;;;;;89.30;47.28;;;6.60;99.90;;;;;;5271965;28;20110;-74
2021/12/06 04:23:11;;;;;;;100.50;49.33;;;6.40;99.90;;;;;;5272046;28;20020;-74
2021/12/06 04:25:42;;;;;;;86.30;47.78;;;6.40;99.90;;;;;;5272156;28;20031;-74
2021/12/06 04:28:15;;;;;;;91.57;46.97;;;6.30;99.90;;;;;;5271875;28;20024;-74
2021/12/06 04:30:47;;;;;;;89.38;47.80;;;6.50;99.90;;;;;;5272121;28;20024;-74
2021/12/06 04:33:18;;;;;;;88.38;48.20;;;6.40;99.90;;;;;;5271922;28;20039;-74
2021/12/06 04:35:50;;;;;;;89.30;46.55;;;6.40;99.90;;;;;;5271966;28;20040;-74
2021/12/06 04:38:21;;;;;;;80.20;44.80;;;6.30;99.90;;;;;;5271676;28;20038;-74
2021/12/06 04:40:52;;;;;;;86.28;46.97;;;6.40;99.90;;;;;;5271766;28;20380;-74
2021/12/06 04:43:23;;;;;;;86.00;44.45;;;6.00;99.90;;;;;;5271627;28;20019;-74
2021/12/06 04:45:54;;;;;;;75.72;40.35;;;6.20;99.90;;;;;;5271844;28;20498;-74
2021/12/06 04:48:25;;;;;;;76.28;40.67;;;6.20;99.90;;;;;;5271588;28;20028;-74
2021/12/06 04:50:56;;;;;;;82.70;42.70;;;5.90;99.90;;;;;;5271692;28;20112;-74
2021/12/06 04:53:36;;;;;;;81.40;41.28;;;6.10;99.90;;;;;;5271587;28;20473;-74
2021/12/06 04:56:19;;;;;;;76.53;40.67;;;6.00;99.90;;;;;;5271328;28;20079;-73
2021/12/06 04:58:55;;;;;;;88.03;45.72;;;5.90;99.90;;;;;;5270843;28;20031;-74
2021/12/06 05:01:28;;;;;;;97.10;50.80;;;5.80;99.90;;;;;;5253349;28;20128;-73
2021/12/06 05:04:07;;;;;;;74.25;40.10;;;5.80;99.90;;;;;;5253142;28;20058;-74
2021/12/06 05:06:42;;;;;;;73.53;38.60;;;5.80;99.90;;;;;;5271358;28;20036;-75
2021/12/06 05:09:19;;;;;;;72.10;39.65;;;5.90;99.90;;;;;;5271499;28;20095;-74
2021/12/06 05:11:50;;;;;;;74.68;38.10;;;5.70;99.90;;;;;;5271423;28;20379;-74
2021/12/06 05:14:21;;;;;;;73.60;36.13;;;5.90;99.90;;;;;;5271010;28;20069;-74
2021/12/06 05:16:53;;;;;;;76.50;40.20;;;5.90;99.90;;;;;;5270998;28;20028;-74
2021/12/06 05:19:24;;;;;;;76.53;39.50;;;5.90;99.90;;;;;;5271019;28;20035;-73
2021/12/06 05:21:55;;;;;;;74.60;38.63;;;5.60;99.90;;;;;;5270884;28;20383;-74
2021/12/06 05:24:26;;;;;;;60.30;34.67;;;5.50;99.90;;;;;;5270979;28;20425;-74
2021/12/06 05:26:58;;;;;;;66.32;33.97;;;5.70;99.90;;;;;;5270562;28;20036;-74
2021/12/06 05:29:30;;;;;;;71.45;36.30;;;5.70;99.90;;;;;;5271064;28;20405;-73
2021/12/06 05:32:03;;;;;;;68.32;34.25;;;5.60;99.90;;;;;;5252675;28;20021;-74
2021/12/06 05:34:43;;;;;;;75.00;35.47;;;5.60;99.90;;;;;;5270530;28;20119;-74
2021/12/06 05:37:14;;;;;;;67.30;32.50;;;5.70;99.90;;;;;;5270642;28;20286;-73
2021/12/06 05:39:45;;;;;;;65.63;35.60;;;5.70;99.90;;;;;;5270739;28;20487;-73
2021/12/06 05:42:16;;;;;;;71.63;35.97;;;5.70;99.90;;;;;;5270571;28;20024;-74
2021/12/06 05:44:48;;;;;;;70.40;36.08;;;5.70;99.90;;;;;;5263158;28;20033;-74
2021/12/06 05:47:19;;;;;;;65.90;35.40;;;5.60;99.90;;;;;;5257870;28;20486;-74
2021/12/06 05:49:50;;;;;;;68.07;34.70;;;5.60;99.90;;;;;;5258470;28;20020;-74
2021/12/06 05:52:21;;;;;;;61.05;31.60;;;5.80;99.90;;;;;;5257993;28;20024;-73
2021/12/06 05:54:51;;;;;;;78.72;43.95;;;5.80;99.90;;;;;;5257017;28;20361;-73
2021/12/06 05:57:22;;;;;;;85.35;47.67;;;5.80;99.90;;;;;;5257109;28;20099;-74
2021/12/06 05:59:53;;;;;;;84.82;46.08;;;5.90;99.90;;;;;;5257086;28;20067;-74
2021/12/06 06:02:24;;;;;;;99.55;48.63;;;5.90;99.90;;;;;;5256812;28;20098;-73
2021/12/06 06:04:55;;;;;;;93.55;47.75;;;5.90;99.90;;;;;;5258141;28;20091;-74
2021/12/06 06:07:26;;;;;;;97.97;48.55;;;6.10;99.90;;;;;;5258244;28;20107;-72
2021/12/06 06:09:57;;;;;;;103.25;50.25;;;6.00;99.90;;;;;;5256606;28;20012;-73
2021/12/06 06:12:27;;;;;;;95.15;48.00;;;6.10;99.90;;;;;;5256475;28;20047;-74
2021/12/06 06:14:58;;;;;;;90.45;44.90;;;6.10;99.90;;;;;;5257426;28;20085;-73
2021/12/06 06:17:38;;;;;;;93.55;46.45;;;6.10;99.90;;;;;;5258044;28;20016;-73
2021/12/06 06:20:23;;;;;;;82.90;43.53;;;6.20;99.90;;;;;;5258240;28;20016;-74
2021/12/06 06:22:54;;;;;;;82.63;45.40;;;6.20;99.90;;;;;;5252540;28;20548;-74
2021/12/06 06:25:25;;;;;;;79.53;44.22;;;6.20;99.90;;;;;;5248163;28;20100;-74
2021/12/06 06:27:56;;;;;;;74.78;40.42;;;6.30;99.90;;;;;;5248820;28;20058;-74
2021/12/06 06:30:27;;;;;;;95.50;47.28;;;6.60;99.90;;;;;;5230911;28;20031;-74
2021/12/06 06:32:58;;;;;;;37.80;20.58;;;6.80;99.90;;;;;;5248665;28;20028;-74
2021/12/06 06:35:30;;;;;;;67.28;35.75;;;9.70;99.90;;;;;;5248582;28;20493;-71
2021/12/06 06:38:02;;;;;;;19.55;10.73;;;9.10;99.90;;;;;;5248727;28;20025;-74
2021/12/06 06:40:33;;;;;;;17.70;9.27;;;11.20;99.90;;;;;;5248561;28;20032;-74
2021/12/06 06:43:05;;;;;;;14.45;6.57;;;12.00;99.90;;;;;;5248361;28;20056;-74
2021/12/06 06:45:35;;;;;;;11.30;4.90;;;12.70;99.90;;;;;;5230631;28;20033;-75
2021/12/06 06:48:06;;;;;;;13.70;4.30;;;13.00;99.90;;;;;;5248362;28;20013;-74
2021/12/06 06:50:38;;;;;;;9.50;4.97;;;13.20;99.90;;;;;;5248569;28;20029;-74
2021/12/06 06:53:08;;;;;;;13.98;7.30;;;13.00;99.90;;;;;;5248457;28;20025;-75
2021/12/06 06:55:41;;;;;;;9.20;3.55;;;13.40;99.90;;;;;;5248340;28;20040;-74
2021/12/06 06:58:12;;;;;;;7.85;3.90;;;13.60;99.90;;;;;;5248403;28;20028;-73
2021/12/06 07:00:43;;;;;;;31.58;19.60;;;13.90;99.90;;;;;;5248522;28;20032;-75
2021/12/06 07:03:14;;;;;;;7.35;3.75;;;14.10;99.90;;;;;;5248177;28;20048;-75
2021/12/06 07:05:45;;;;;;;10.77;4.47;;;14.10;99.90;;;;;;5248351;28;20385;-74
2021/12/06 07:08:16;;;;;;;11.57;6.38;;;14.20;99.90;;;;;;5248402;28;20092;-75
2021/12/06 07:10:50;;;;;;;26.58;17.05;;;14.50;99.90;;;;;;5248262;28;20032;-75
2021/12/06 07:13:22;;;;;;;11.57;5.63;;;14.40;99.90;;;;;;5248056;28;20048;-74
2021/12/06 07:15:54;;;;;;;27.13;14.68;;;14.60;99.90;;;;;;5247628;28;20028;-73
2021/12/06 07:18:25;;;;;;;11.05;2.85;;;14.60;99.90;;;;;;5247680;28;20028;-74
2021/12/06 07:20:56;;;;;;;11.10;2.70;;;14.90;99.90;;;;;;5248268;28;20017;-74
2021/12/06 07:23:27;;;;;;;9.55;3.00;;;15.10;99.90;;;;;;5234213;28;20066;-75
2021/12/06 07:25:58;;;;;;;7.97;2.60;;;15.20;99.90;;;;;;5252377;28;20349;-76
2021/12/06 07:28:28;;;;;;;9.65;4.22;;;15.40;99.90;;;;;;5234317;28;20036;-75
2021/12/06 07:31:01;;;;;;;9.95;2.53;;;15.40;99.90;;;;;;5252255;28;20021;-75
2021/12/06 07:33:36;;;;;;;9.43;2.60;;;15.60;99.90;;;;;;5252266;28;20052;-75
2021/12/06 07:36:07;;;;;;;12.10;3.88;;;15.60;99.90;;;;;;5234211;28;20036;-74
2021/12/06 07:38:39;;;;;;;8.65;3.60;;;15.60;99.90;;;;;;5252117;28;20458;-74
2021/12/06 07:41:14;;;;;;;8.95;2.30;;;16.00;99.90;;;;;;5252209;28;20036;-74
2021/12/06 07:43:45;;;;;;;11.35;3.08;;;16.10;99.90;;;;;;5251910;28;20061;-75
2021/12/06 07:46:16;;;;;;;6.20;1.83;;;16.10;99.90;;;;;;5233910;28;20384;-76
2021/12/06 07:48:52;;;;;;;6.28;1.85;;;16.30;99.90;;;;;;5251904;28;20073;-76
2021/12/06 07:51:25;;;;;;;8.85;2.65;;;16.20;99.90;;;;;;5234103;28;20029;-76
2021/12/06 07:53:57;;;;;;;5.72;1.77;;;16.40;99.90;;;;;;5251838;28;20021;-76
2021/12/06 07:56:28;;;;;;;8.23;1.80;;;16.60;99.90;;;;;;5233883;28;20059;-74
2021/12/06 07:58:59;;;;;;;5.03;1.58;;;16.70;99.90;;;;;;5251826;28;20341;-75
2021/12/06 08:01:30;;;;;;;7.47;2.22;;;16.90;99.90;;;;;;5251605;28;20043;-73
2021/12/06 08:04:01;;;;;;;6.43;1.83;;;16.90;99.90;;;;;;5251489;28;20068;-73
2021/12/06 08:06:32;;;;;;;5.45;1.58;;;16.70;99.90;;;;;;5251524;28;20031;-74
2021/12/06 08:09:03;;;;;;;4.90;1.63;;;17.10;99.90;;;;;;5251233;28;20029;-74
2021/12/06 08:11:34;;;;;;;8.55;1.73;;;17.10;99.90;;;;;;5251560;28;20052;-73
2021/12/06 08:14:06;;;;;;;5.30;1.45;;;17.20;99.90;;;;;;5255946;28;20456;-73
2021/12/06 08:16:42;;;;;;;6.05;1.55;;;17.40;99.90;;;;;;5264732;28;20530;-75
2021/12/06 08:19:17;;;;;;;6.32;1.65;;;17.10;99.90;;;;;;5252952;28;20445;-75
2021/12/06 08:21:47;;;;;;;3.72;1.67;;;17.10;99.90;;;;;;5272330;28;20104;-76
2021/12/06 08:24:18;;;;;;;6.13;1.60;;;17.30;99.90;;;;;;5272152;28;20126;-75
2021/12/06 08:26:49;;;;;;;5.20;1.95;;;17.30;99.90;;;;;;5272283;28;20398;-74
2021/12/06 08:29:22;;;;;;;8.98;1.98;;;17.30;99.90;;;;;;5253635;28;20032;-74
2021/12/06 08:31:52;;;;;;;10.73;1.92;;;17.50;99.90;;;;;;5271940;28;20093;-75
2021/12/06 08:34:23;;;;;;;5.50;1.60;;;17.60;99.90;;;;;;5232730;28;20040;-74
2021/12/06 08:36:55;;;;;;;6.68;2.17;;;17.60;99.90;;;;;;5233124;28;20032;-76
2021/12/06 08:39:25;;;;;;;8.93;2.10;;;17.80;99.90;;;;;;5232976;28;20365;-73
2021/12/06 08:41:56;;;;;;;8.70;2.00;;;17.90;99.90;;;;;;5233096;28;20078;-74
2021/12/06 08:44:27;;;;;;;7.25;1.85;;;17.80;99.90;;;;;;5232822;28;20032;-74
2021/12/06 08:46:58;;;;;;;7.97;2.30;;;18.00;99.90;;;;;;5251066;28;20056;-75
2021/12/06 08:49:30;;;;;;;9.27;2.22;;;17.90;99.90;;;;;;5250743;28;20488;-74
2021/12/06 08:52:02;;;;;;;7.50;2.22;;;17.80;99.90;;;;;;5250627;28;20013;-74
2021/12/06 08:54:33;;;;;;;6.75;2.17;;;18.00;99.90;;;;;;5250746;28;20029;-75
2021/12/06 08:57:04;;;;;;;5.55;2.10;;;18.30;99.90;;;;;;5232337;28;20025;-76
2021/12/06 08:59:35;;;;;;;7.70;1.98;;;18.20;99.90;;;;;;5232236;28;20075;-75
2021/12/06 09:02:07;;;;;;;5.93;2.00;;;18.80;99.90;;;;;;5250007;28;20056;-74
2021/12/06 09:04:39;;;;;;;6.90;2.10;;;18.40;99.90;;;;;;5250396;28;20115;-74
2021/12/06 09:07:13;;;;;;;6.78;1.88;;;18.60;99.90;;;;;;5250560;28;20028;-76
2021/12/06 09:09:47;;;;;;;8.10;2.20;;;17.50;99.90;;;;;;5250399;28;20031;-74
2021/12/06 09:12:25;;;;;;;7.68;2.47;;;17.60;99.90;;;;;;5250553;28;20041;-74
2021/12/06 09:14:59;;;;;;;7.70;2.20;;;17.30;99.90;;;;;;5232855;28;20492;-76
2021/12/06 09:17:30;;;;;;;8.82;2.67;;;17.80;99.90;;;;;;5250401;28;20056;-76
2021/12/06 09:20:03;;;;;;;7.45;2.70;;;18.40;99.90;;;;;;5250624;28;20051;-76
2021/12/06 09:22:34;;;;;;;7.25;2.88;;;18.30;99.90;;;;;;5250048;28;20036;-75
2021/12/06 09:25:08;;;;;;;11.45;3.13;;;19.00;99.90;;;;;;5250613;28;20025;-75
2021/12/06 09:27:40;;;;;;;8.88;3.03;;;18.60;99.90;;;;;;5250248;28;20028;-75
2021/12/06 09:30:17;;;;;;;5.63;2.25;;;18.10;99.90;;;;;;5250602;28;20033;-74
2021/12/06 09:32:50;;;;;;;7.75;2.40;;;18.50;99.90;;;;;;5232493;28;20028;-75
2021/12/06 09:35:26;;;;;;;8.05;2.20;;;18.80;99.90;;;;;;5231924;28;20036;-74
2021/12/06 09:37:58;;;;;;;8.55;2.85;;;18.20;99.90;;;;;;5249902;28;20025;-75
2021/12/06 09:40:31;;;;;;;10.77;4.38;;;17.70;99.90;;;;;;5249784;28;20124;-74
2021/12/06 09:43:04;;;;;;;11.50;3.78;;;17.60;99.90;;;;;;5249993;28;20399;-75
2021/12/06 09:45:36;;;;;;;5.80;2.47;;;18.60;99.90;;;;;;5249772;28;20345;-75
2021/12/06 09:48:08;;;;;;;4.85;2.08;;;17.90;99.90;;;;;;5249800;28;20036;-75
2021/12/06 09:50:48;;;;;;;10.52;4.25;;;17.70;99.90;;;;;;5250083;28;20523;-76
2021/12/06 09:53:21;;;;;;;5.60;2.75;;;18.00;99.90;;;;;;5249437;28;20029;-74
2021/12/06 09:55:55;;;;;;;11.48;2.15;;;18.10;99.90;;;;;;5249573;28;20037;-74
2021/12/06 09:58:26;;;;;;;6.53;2.20;;;18.00;99.90;;;;;;5249451;28;20464;-73
2021/12/06 10:01:02;;;;;;;16.42;4.32;;;17.70;99.90;;;;;;5249363;28;20078;-74
2021/12/06 10:03:34;;;;;;;9.27;2.53;;;17.60;99.90;;;;;;5249226;28;20052;-75
2021/12/06 10:06:06;;;;;;;10.70;1.83;;;17.60;99.90;;;;;;5248364;28;20024;-74
2021/12/06 10:08:39;;;;;;;7.80;2.05;;;17.60;99.90;;;;;;5248202;28;20020;-73
2021/12/06 10:11:13;;;;;;;13.57;7.28;;;18.10;99.90;;;;;;5248079;28;20020;-75
2021/12/06 10:13:45;;;;;;;7.03;2.17;;;18.20;99.90;;;;;;5247723;28;20408;-76
2021/12/06 10:16:16;;;;;;;6.35;2.00;;;19.00;99.90;;;;;;5248680;28;20089;-74
2021/12/06 10:18:47;;;;;;;8.25;1.90;;;18.60;99.90;;;;;;5248844;28;20013;-74
2021/12/06 10:21:20;;;;;;;7.43;2.03;;;18.80;99.90;;;;;;5229855;28;20029;-75
2021/12/06 10:23:51;;;;;;;7.95;2.17;;;19.40;99.90;;;;;;5248328;28;20016;-74
2021/12/06 10:26:26;;;;;;;7.55;2.47;;;19.30;99.90;;;;;;5248422;28;20033;-75
2021/12/06 10:29:01;;;;;;;9.15;2.13;;;19.40;99.90;;;;;;5248454;28;20469;-75
2021/12/06 10:31:33;;;;;;;13.10;4.63;;;19.50;99.90;;;;;;5248395;28;20438;-74
2021/12/06 10:34:04;;;;;;;11.80;2.97;;;18.80;99.90;;;;;;5248270;28;20510;-74
2021/12/06 10:36:35;;;;;;;7.20;2.30;;;19.10;99.90;;;;;;5248156;28;20021;-73
2021/12/06 10:39:09;;;;;;;8.20;2.42;;;19.20;99.90;;;;;;5248358;28;20119;-75
2021/12/06 10:41:41;;;;;;;6.93;2.30;;;19.10;99.90;;;;;;5248474;28;20021;-74
2021/12/06 10:44:13;;;;;;;9.88;2.20;;;19.20;99.90;;;;;;5214019;28;20025;-74
2021/12/06 10:46:49;;;;;;;5.28;2.20;;;19.00;99.90;;;;;;5248223;28;20024;-74
2021/12/06 10:49:24;;;;;;;11.23;5.68;;;19.50;99.90;;;;;;5248222;28;20378;-74
2021/12/06 10:51:54;;;;;;;7.90;3.53;;;19.90;99.90;;;;;;5248328;28;20032;-75
2021/12/06 10:54:35;;;;;;;7.43;2.20;;;19.40;99.90;;;;;;5248181;28;20040;-75
2021/12/06 10:57:08;;;;;;;6.00;2.75;;;19.40;99.90;;;;;;5247611;28;20398;-74
2021/12/06 10:59:39;;;;;;;6.90;2.38;;;19.30;99.90;;;;;;5248230;28;20495;-76
2021/12/06 11:02:12;;;;;;;8.57;1.95;;;19.30;99.90;;;;;;5247856;28;20101;-75
2021/12/06 11:04:42;;;;;;;5.85;1.70;;;20.00;99.90;;;;;;5248145;28;20128;-75
2021/12/06 11:07:13;;;;;;;7.03;1.98;;;19.60;99.90;;;;;;5248173;28;20443;-74
2021/12/06 11:09:46;;;;;;;6.55;1.70;;;19.70;99.90;;;;;;5248127;28;20025;-76
2021/12/06 11:12:20;;;;;;;4.20;1.70;;;20.20;99.90;;;;;;5248024;28;20119;-75
2021/12/06 11:14:51;;;;;;;8.93;2.00;;;20.00;99.80;;;;;;5229873;28;20139;-75
2021/12/06 11:17:22;;;;;;;4.28;1.75;;;19.80;98.50;;;;;;5247954;28;20024;-76
2021/12/06 11:19:54;;;;;;;6.07;1.50;;;19.70;99.40;;;;;;5247988;28;20028;-76
2021/12/06 11:22:26;;;;;;;5.63;2.30;;;20.40;95.90;;;;;;5247827;28;20074;-75
2021/12/06 11:24:57;;;;;;;5.57;1.92;;;19.90;94.80;;;;;;5248018;28;20039;-75
2021/12/06 11:27:36;;;;;;;5.38;1.63;;;20.30;95.00;;;;;;5247739;28;20472;-74
2021/12/06 11:30:11;;;;;;;7.85;2.42;;;20.10;94.20;;;;;;5248002;28;20024;-75
2021/12/06 11:32:45;;;;;;;4.90;1.50;;;19.70;94.50;;;;;;5247679;28;20055;-75
2021/12/06 11:35:17;;;;;;;6.97;1.55;;;19.90;93.50;;;;;;5247858;28;20040;-75
2021/12/06 11:37:55;;;;;;;4.03;1.60;;;20.10;92.10;;;;;;5247491;28;20025;-74
2021/12/06 11:40:35;;;;;;;5.25;1.27;;;19.90;88.70;;;;;;5247752;28;20489;-75
2021/12/06 11:43:14;;;;;;;4.00;1.33;;;19.80;93.00;;;;;;5247612;28;20423;-75
2021/12/06 11:45:52;;;;;;;3.42;1.40;;;19.80;89.70;;;;;;5247762;28;20033;-75
2021/12/06 11:48:37;;;;;;;5.97;1.20;;;19.90;86.90;;;;;;5247629;28;20036;-75
2021/12/06 11:51:14;;;;;;;4.80;1.40;;;19.30;91.40;;;;;;5247650;28;20035;-75
2021/12/06 11:53:52;;;;;;;5.40;1.63;;;19.00;95.50;;;;;;5256042;28;20427;-75
2021/12/06 11:56:28;;;;;;;4.15;1.45;;;18.80;99.90;;;;;;5268994;28;20035;-75
2021/12/06 11:59:03;;;;;;;5.97;1.60;;;18.80;99.90;;;;;;5269054;28;20360;-75
2021/12/06 12:01:38;;;;;;;4.13;1.60;;;19.40;99.90;;;;;;5268935;28;20064;-74
2021/12/06 12:04:16;;;;;;;7.43;3.22;;;19.40;98.50;;;;;;5268523;28;20384;-74
2021/12/06 12:06:50;;;;;;;5.97;1.50;;;18.90;99.90;;;;;;5269197;28;20039;-74
2021/12/06 12:09:25;;;;;;;4.90;1.67;;;19.40;99.90;;;;;;5253894;28;20028;-74
2021/12/06 12:12:08;;;;;;;6.88;1.92;;;19.40;99.90;;;;;;5254047;28;20016;-75
2021/12/06 12:14:46;;;;;;;8.68;2.20;;;19.80;95.90;;;;;;5272267;28;20051;-73
2021/12/06 12:17:19;;;;;;;7.30;3.78;;;19.50;96.10;;;;;;5272618;28;20491;-75
2021/12/06 12:19:53;;;;;;;4.75;1.67;;;19.30;98.10;;;;;;5272954;28;20066;-76
2021/12/06 12:22:25;;;;;;;11.77;3.30;;;18.90;99.90;;;;;;5272308;28;20260;-74
2021/12/06 12:25:04;;;;;;;4.82;1.60;;;18.70;99.90;;;;;;5272353;28;20030;-77
2021/12/06 12:30:08;;;;;;;4.82;1.45;;;18.40;99.90;;;;;;5272361;28;20548;-75
2021/12/06 12:32:39;;;;;;;4.60;1.70;;;18.40;99.90;;;;;;5254041;28;20409;-75
2021/12/06 12:35:15;;;;;;;28.25;13.90;;;18.30;99.90;;;;;;5272138;28;20064;-75
2021/12/06 12:37:50;;;;;;;11.65;5.13;;;18.30;99.90;;;;;;5272270;28;20020;-75
2021/12/06 12:40:25;;;;;;;7.03;2.03;;;18.30;99.90;;;;;;5272510;28;20024;-75
2021/12/06 12:42:59;;;;;;;11.27;5.15;;;18.40;99.90;;;;;;5253793;28;20044;-75
2021/12/06 12:45:51;;;;;;;5.30;1.58;;;18.40;99.90;;;;;;5272175;28;20095;-75
2021/12/06 12:48:25;;;;;;;9.93;3.83;;;18.10;99.90;;;;;;5272308;28;20074;-74
2021/12/06 12:51:06;;;;;;;5.28;2.00;;;19.00;99.90;;;;;;5254149;28;20024;-75
2021/12/06 12:53:56;;;;;;;11.15;1.80;;;19.30;99.90;;;;;;5272243;28;20348;-75
2021/12/06 12:56:32;;;;;;;3.33;1.58;;;19.50;99.90;;;;;;5272174;28;20039;-75
2021/12/06 12:59:42;;;;;;;6.70;2.47;;;19.60;99.90;;;;;;5271746;28;20425;-74
2021/12/06 13:02:29;;;;;;;8.20;3.25;;;19.10;99.90;;;;;;5256605;28;20399;-76
2021/12/06 13:05:00;;;;;;;7.82;1.88;;;19.30;99.90;;;;;;5271748;28;20024;-76
2021/12/06 13:07:32;;;;;;;5.40;1.60;;;18.60;99.90;;;;;;5271899;28;20329;-75
2021/12/06 13:10:24;;;;;;;6.00;2.55;;;18.70;99.90;;;;;;5271317;28;20020;-76
2021/12/06 13:13:04;;;;;;;7.30;2.25;;;18.80;99.90;;;;;;5271573;28;20031;-76
2021/12/06 13:16:02;;;;;;;7.53;2.42;;;18.90;99.90;;;;;;5271129;28;20438;-76
2021/12/06 13:18:51;;;;;;;7.00;1.98;;;18.90;99.90;;;;;;5271226;28;20035;-75
2021/12/06 13:21:43;;;;;;;8.77;3.95;;;18.20;99.90;;;;;;5270965;28;20106;-75
2021/12/06 13:24:15;;;;;;;6.32;2.00;;;17.90;99.90;;;;;;5271404;28;20408;-75
2021/12/06 13:26:49;;;;;;;5.60;2.05;;;17.90;99.90;;;;;;5253523;28;20028;-76
2021/12/06 13:29:26;;;;;;;6.90;2.15;;;18.20;99.90;;;;;;5271073;28;20020;-76
2021/12/06 13:32:17;;;;;;;8.45;4.53;;;17.90;99.90;;;;;;5253092;28;20108;-73
2021/12/06 13:34:53;;;;;;;7.65;2.10;;;17.70;99.90;;;;;;5238775;28;20044;-74